Germantown, Ohio
Current Conditions -  °F | °C
As of 3:15 PM on Monday 24 Nov 2014 (Local Time) from KMWO Reporting Station
Overcast Overcast  
Wind Chill: 39°   Ceiling: 3000
Heat Index: 46°   Visibility: 10mi
Dew Point: 34°   Wind: 22mph
Humidity: 62%   Direction: 230°SW
Pressure: 29.68"   Gusts: 28mph
Location:  39.63°N, 84.37°W
Report Text: KMWO 242015Z AUTO 23019G24KT 10SM OVC030 08/01 A2968 RMK AO2 T00800011
Loading
Personal Weather Stations






























Interactive Weather Map New forecast layout! Learn more

10-Day Weather Forecast

Advertisements
Track Severe Weather on mobile